Terminal Aerodrome Forecast
Issued by NWS Huntsville, AL

Home | Current Version | Previous Version | Text Only | Print | Product List | Glossary On
Versions: 1 2 3 4 5 6 7 8 9 10 11 12 13 14 15 16 17 18 19 20 21 22 23 24 25 26 27
627
FTUS44 KHUN 292330
TAFHSV
TAF
KHSV 292330Z 3000/3024 15005KT P6SM VCTS BKN060CB
     FM300300 13005KT P6SM VCSH BKN060
     FM300600 13005KT P6SM BKN100
     FM301500 19010KT P6SM SCT050 BKN120
     FM302100 20015G25KT P6SM VCTS BKN050CB=

USA.gov is the U.S. government's official web portal to all federal, state and local government web resources and services.